Time;durP1;ratioP1;P1;durP2;ratioP2;P2;SDS_P1;SDS_P2;PMS_P1;PMS_P2;Temp;Humidity;BMP_temperature;BMP_pressure;BME280_temperature;BME280_humidity;BME280_pressure;Samples;Min_cycle;Max_cycle;Signal;HPM_P1;HPM_P2
2021/12/27 00:00:17;;;;;;;14.30;7.93;;;8.30;97.40;;;;;;5037750;28;20423;-73
2021/12/27 00:02:44;;;;;;;14.60;7.80;;;8.40;97.50;;;;;;5035154;28;20439;-73
2021/12/27 00:05:10;;;;;;;14.70;8.17;;;8.40;97.50;;;;;;5034371;28;20411;-74
2021/12/27 00:07:36;;;;;;;13.50;6.93;;;8.40;97.50;;;;;;5037604;28;20957;-73
2021/12/27 00:10:04;;;;;;;15.77;8.57;;;8.50;97.60;;;;;;5048033;28;20461;-73
2021/12/27 00:12:31;;;;;;;15.60;10.07;;;8.40;97.50;;;;;;5042425;28;20262;-74
2021/12/27 00:14:56;;;;;;;13.97;8.97;;;8.30;97.50;;;;;;5023871;28;20774;-73
2021/12/27 00:17:22;;;;;;;15.93;8.67;;;8.30;97.50;;;;;;5045702;28;20498;-74
2021/12/27 00:19:48;;;;;;;14.97;8.30;;;8.30;97.60;;;;;;5042886;28;20220;-74
2021/12/27 00:22:14;;;;;;;12.40;7.70;;;8.30;97.70;;;;;;5028210;28;20264;-74
2021/12/27 00:24:39;;;;;;;17.13;9.40;;;8.30;97.70;;;;;;5033783;28;20181;-74
2021/12/27 00:27:06;;;;;;;10.20;7.30;;;8.20;97.70;;;;;;5048183;28;20546;-75
2021/12/27 00:29:32;;;;;;;14.60;8.10;;;8.20;97.70;;;;;;5048994;28;20211;-73
2021/12/27 00:31:58;;;;;;;13.80;8.13;;;8.20;97.70;;;;;;5043589;28;20444;-73
2021/12/27 00:34:24;;;;;;;15.23;8.40;;;8.20;97.80;;;;;;5046152;28;20494;-74
2021/12/27 00:36:50;;;;;;;13.47;7.30;;;8.20;97.90;;;;;;5042721;28;20474;-75
2021/12/27 00:39:16;;;;;;;11.23;7.50;;;8.30;97.90;;;;;;5050857;28;20193;-75
2021/12/27 00:41:41;;;;;;;13.07;7.73;;;8.40;97.90;;;;;;5039092;28;20197;-74
2021/12/27 00:44:07;;;;;;;15.70;8.70;;;8.40;97.80;;;;;;5027361;28;20666;-73
2021/12/27 00:46:33;;;;;;;13.20;7.43;;;8.40;97.80;;;;;;5027813;28;20186;-75
2021/12/27 00:48:58;;;;;;;16.83;8.40;;;8.30;97.80;;;;;;5041403;28;20187;-75
2021/12/27 00:51:25;;;;;;;16.10;8.60;;;8.40;97.70;;;;;;5020921;28;20220;-73
2021/12/27 00:53:51;;;;;;;16.57;7.57;;;8.40;97.40;;;;;;5034641;28;20212;-75
2021/12/27 00:56:16;;;;;;;14.93;8.90;;;8.40;97.30;;;;;;5040032;28;20470;-73
2021/12/27 00:58:42;;;;;;;15.33;8.20;;;8.50;97.30;;;;;;5047666;28;20181;-73
2021/12/27 01:01:08;;;;;;;12.07;7.73;;;8.50;97.20;;;;;;5046015;28;20250;-73
2021/12/27 01:03:34;;;;;;;16.50;8.90;;;8.50;97.10;;;;;;5032294;28;20506;-73
2021/12/27 01:05:59;;;;;;;13.00;8.00;;;8.50;96.90;;;;;;5028728;28;20272;-73
2021/12/27 01:08:25;;;;;;;17.03;9.03;;;8.50;96.80;;;;;;5052306;28;20601;-72
2021/12/27 01:16:10;;;;;;;14.57;8.07;;;8.40;96.70;;;;;;5059196;28;20433;-73
2021/12/27 01:18:41;;;;;;;14.43;7.27;;;8.30;96.70;;;;;;5038258;28;20420;-72
2021/12/27 01:21:07;;;;;;;11.33;7.60;;;8.30;96.70;;;;;;5038211;28;20485;-73
2021/12/27 01:23:33;;;;;;;20.03;8.70;;;8.20;96.40;;;;;;5052510;28;20469;-73
2021/12/27 01:25:59;;;;;;;14.97;7.50;;;8.20;96.40;;;;;;5040700;28;20423;-72
2021/12/27 01:28:25;;;;;;;15.70;7.30;;;8.10;96.40;;;;;;5040897;28;20442;-74
2021/12/27 01:30:51;;;;;;;18.43;8.80;;;8.10;96.50;;;;;;5025456;28;20201;-73
2021/12/27 01:33:19;;;;;;;15.50;7.90;;;8.10;96.50;;;;;;5043796;28;20797;-74
2021/12/27 01:35:45;;;;;;;11.90;7.23;;;8.00;96.40;;;;;;5049817;28;20428;-73
2021/12/27 01:38:12;;;;;;;14.47;8.00;;;8.00;96.40;;;;;;5028163;28;20419;-73
2021/12/27 01:40:40;;;;;;;15.70;8.40;;;8.00;96.40;;;;;;5017155;28;20478;-73
2021/12/27 01:43:13;;;;;;;14.77;8.07;;;8.10;96.50;;;;;;5026842;28;20657;-73
2021/12/27 01:45:44;;;;;;;12.40;7.47;;;8.00;96.50;;;;;;5033742;28;20440;-74
2021/12/27 01:48:10;;;;;;;14.93;8.00;;;8.00;96.50;;;;;;5044433;28;20423;-72
2021/12/27 01:50:44;;;;;;;12.23;7.10;;;8.00;96.50;;;;;;5041609;28;20454;-72
2021/12/27 01:53:11;;;;;;;15.93;8.37;;;8.00;96.50;;;;;;5028819;28;20783;-74
2021/12/27 01:55:38;;;;;;;15.93;8.33;;;8.00;96.40;;;;;;5047001;28;20423;-74
2021/12/27 01:58:05;;;;;;;18.20;9.37;;;8.00;96.40;;;;;;5036089;28;20429;-76
2021/12/27 02:00:32;;;;;;;16.70;8.00;;;7.90;96.40;;;;;;5040932;28;20437;-77
2021/12/27 02:02:58;;;;;;;14.50;8.17;;;7.90;96.50;;;;;;5033876;28;20421;-74
2021/12/27 02:05:24;;;;;;;17.80;9.60;;;7.80;96.70;;;;;;5037643;28;20423;-76
2021/12/27 02:07:49;;;;;;;16.17;8.80;;;7.80;96.90;;;;;;5038350;28;20181;-73
2021/12/27 02:10:15;;;;;;;15.40;7.70;;;7.70;97.10;;;;;;5049622;28;20184;-75
2021/12/27 02:12:44;;;;;;;14.47;8.57;;;7.70;97.20;;;;;;5050180;28;20216;-75
2021/12/27 02:15:11;;;;;;;17.10;8.83;;;7.70;97.30;;;;;;5046658;28;20427;-74
2021/12/27 02:17:42;;;;;;;15.37;9.20;;;7.60;97.50;;;;;;5030541;28;20475;-74
2021/12/27 02:20:17;;;;;;;14.03;8.20;;;7.60;97.50;;;;;;5037570;28;20469;-75
2021/12/27 02:22:44;;;;;;;13.73;7.83;;;7.60;97.60;;;;;;5039805;28;20454;-74
2021/12/27 02:25:11;;;;;;;17.30;8.50;;;7.60;97.70;;;;;;5033943;28;20929;-76
2021/12/27 02:27:37;;;;;;;14.20;7.83;;;7.70;97.80;;;;;;5032658;28;20428;-75
2021/12/27 02:30:08;;;;;;;13.90;7.83;;;7.70;97.60;;;;;;5047197;28;20484;-77
2021/12/27 02:32:45;;;;;;;14.27;7.63;;;7.70;97.40;;;;;;5030017;28;20491;-76
2021/12/27 02:35:17;;;;;;;18.53;8.70;;;7.70;97.30;;;;;;5039729;28;20542;-75
2021/12/27 02:37:42;;;;;;;16.17;7.83;;;7.70;97.20;;;;;;5029616;28;20469;-74
2021/12/27 02:40:08;;;;;;;15.70;8.10;;;7.70;97.20;;;;;;5035801;28;20428;-75
2021/12/27 02:42:34;;;;;;;21.60;8.87;;;7.70;97.10;;;;;;5041732;28;20435;-74
2021/12/27 02:45:00;;;;;;;18.40;8.70;;;7.70;97.10;;;;;;5035971;28;20436;-76
2021/12/27 02:47:26;;;;;;;17.37;7.90;;;7.60;97.10;;;;;;5022194;28;20188;-75
2021/12/27 02:49:51;;;;;;;15.27;8.50;;;7.70;97.10;;;;;;5035576;28;20188;-75
2021/12/27 02:52:17;;;;;;;18.70;8.60;;;7.60;97.10;;;;;;5030331;28;20237;-75
2021/12/27 02:54:44;;;;;;;19.00;8.57;;;7.60;97.10;;;;;;5022140;28;20180;-76
2021/12/27 02:57:10;;;;;;;14.93;8.27;;;7.40;97.10;;;;;;5048129;28;20208;-77
2021/12/27 02:59:36;;;;;;;20.20;10.10;;;7.40;97.20;;;;;;5046399;28;20477;-74
2021/12/27 03:02:02;;;;;;;17.33;8.67;;;7.40;97.40;;;;;;5035212;28;20844;-74
2021/12/27 03:04:34;;;;;;;18.57;8.67;;;7.40;97.50;;;;;;5016979;28;20417;-74
2021/12/27 03:07:00;;;;;;;14.43;7.47;;;7.40;97.70;;;;;;5040725;28;20422;-74
2021/12/27 03:09:28;;;;;;;14.87;7.80;;;7.50;97.70;;;;;;5047299;28;20423;-75
2021/12/27 03:11:53;;;;;;;14.13;7.60;;;7.50;97.60;;;;;;5005238;28;20196;-76
2021/12/27 03:14:20;;;;;;;13.37;7.10;;;7.60;97.50;;;;;;5040749;28;20752;-75
2021/12/27 03:16:46;;;;;;;12.60;7.30;;;7.60;97.40;;;;;;5050556;28;20299;-75
2021/12/27 03:19:12;;;;;;;14.50;7.57;;;7.60;97.40;;;;;;5041474;28;20516;-76
2021/12/27 03:21:38;;;;;;;14.77;7.10;;;7.70;97.40;;;;;;5049577;28;20207;-76
2021/12/27 03:24:04;;;;;;;12.97;7.10;;;7.70;97.30;;;;;;5039833;28;20416;-74
2021/12/27 03:26:30;;;;;;;11.20;6.10;;;7.70;97.10;;;;;;5045691;28;20180;-73
2021/12/27 03:28:55;;;;;;;11.27;6.13;;;7.60;96.90;;;;;;5024484;28;20493;-76
2021/12/27 03:31:21;;;;;;;11.30;5.90;;;7.70;96.90;;;;;;5047424;28;20208;-74
2021/12/27 03:33:47;;;;;;;9.87;5.73;;;7.60;96.80;;;;;;5018967;28;20732;-72
2021/12/27 03:36:13;;;;;;;8.20;4.80;;;7.70;96.80;;;;;;5047782;28;20216;-73
2021/12/27 03:38:47;;;;;;;8.07;5.10;;;7.70;96.70;;;;;;5030967;28;20919;-74
2021/12/27 03:41:18;;;;;;;7.10;4.53;;;7.80;96.50;;;;;;5046901;28;20435;-74
2021/12/27 03:43:44;;;;;;;8.07;4.70;;;7.80;96.40;;;;;;5048672;28;20422;-74
2021/12/27 03:46:10;;;;;;;6.87;4.80;;;7.90;96.20;;;;;;5047233;28;20415;-73
2021/12/27 03:48:36;;;;;;;7.87;4.27;;;7.90;96.00;;;;;;5044975;28;20197;-73
2021/12/27 03:51:02;;;;;;;6.17;3.80;;;7.90;95.90;;;;;;5040614;28;20450;-74
2021/12/27 03:53:29;;;;;;;6.40;3.80;;;8.00;95.60;;;;;;5019329;28;20421;-72
2021/12/27 03:55:55;;;;;;;6.23;4.20;;;8.00;95.30;;;;;;5055399;28;20475;-73
2021/12/27 03:58:29;;;;;;;5.33;3.33;;;8.00;95.00;;;;;;5041214;28;20426;-73
2021/12/27 04:01:14;;;;;;;7.10;3.80;;;8.10;94.90;;;;;;5043558;28;20463;-73
2021/12/27 04:03:41;;;;;;;5.53;3.33;;;8.20;94.50;;;;;;5035918;28;20778;-74
2021/12/27 04:06:07;;;;;;;8.47;4.77;;;8.20;94.40;;;;;;5038236;28;20800;-74
2021/12/27 04:08:32;;;;;;;10.53;4.40;;;8.30;94.30;;;;;;5026229;28;20427;-75
2021/12/27 04:10:58;;;;;;;8.87;4.37;;;8.20;94.30;;;;;;5037450;28;20208;-74
2021/12/27 04:13:24;;;;;;;9.37;4.93;;;8.20;94.40;;;;;;5041971;28;20184;-74
2021/12/27 04:15:51;;;;;;;8.30;4.30;;;8.20;94.60;;;;;;5024753;28;20189;-74
2021/12/27 04:18:17;;;;;;;9.73;5.10;;;8.20;94.50;;;;;;5034532;28;20189;-75
2021/12/27 04:20:43;;;;;;;7.40;4.67;;;8.30;94.50;;;;;;5046669;28;20427;-73
2021/12/27 04:23:09;;;;;;;7.30;4.67;;;8.30;94.50;;;;;;5052511;28;20450;-74
2021/12/27 04:25:35;;;;;;;9.33;4.53;;;8.30;94.60;;;;;;5035813;28;20420;-74
2021/12/27 04:28:01;;;;;;;9.80;4.50;;;8.30;94.70;;;;;;5046273;28;20279;-73
2021/12/27 04:30:27;;;;;;;8.00;4.60;;;8.40;94.70;;;;;;5047320;28;20510;-73
2021/12/27 04:32:53;;;;;;;7.90;4.40;;;8.40;94.70;;;;;;5029178;28;20443;-73
2021/12/27 04:35:20;;;;;;;9.57;4.90;;;8.30;94.40;;;;;;5030493;28;20237;-73
2021/12/27 04:37:47;;;;;;;7.63;3.93;;;8.20;94.40;;;;;;5052223;28;20246;-74
2021/12/27 04:40:14;;;;;;;7.40;3.60;;;8.20;94.60;;;;;;5036665;28;20483;-73
2021/12/27 04:42:43;;;;;;;9.10;4.50;;;8.10;94.70;;;;;;5027410;28;20447;-73
2021/12/27 04:45:12;;;;;;;6.93;3.30;;;8.20;94.70;;;;;;5018408;28;20498;-73
2021/12/27 04:47:38;;;;;;;9.83;3.60;;;8.20;94.60;;;;;;5044752;28;20435;-73
2021/12/27 04:50:04;;;;;;;3.73;2.60;;;8.20;94.50;;;;;;5043896;28;20984;-75
2021/12/27 04:52:30;;;;;;;7.60;3.73;;;8.20;94.20;;;;;;5038167;28;20460;-74
2021/12/27 04:54:56;;;;;;;4.07;2.80;;;8.20;94.10;;;;;;5045634;28;20441;-74
2021/12/27 04:57:22;;;;;;;6.53;3.70;;;8.30;94.20;;;;;;5049383;28;20208;-74
2021/12/27 04:59:47;;;;;;;6.13;2.97;;;8.30;94.10;;;;;;5037361;28;20385;-73
2021/12/27 05:02:13;;;;;;;6.77;3.60;;;8.40;94.10;;;;;;5029910;28;20211;-73
2021/12/27 05:04:39;;;;;;;5.33;3.90;;;8.40;93.90;;;;;;5038148;28;20213;-73
2021/12/27 05:07:04;;;;;;;8.23;3.60;;;8.30;93.70;;;;;;5039166;28;20187;-73
2021/12/27 05:09:30;;;;;;;4.80;3.33;;;8.20;93.90;;;;;;5027862;28;20623;-72
2021/12/27 05:11:56;;;;;;;7.20;4.83;;;8.20;94.00;;;;;;5044409;28;20205;-73
2021/12/27 05:14:22;;;;;;;6.10;3.57;;;8.10;94.10;;;;;;5038467;28;20187;-74
2021/12/27 05:16:48;;;;;;;7.37;3.70;;;8.00;94.30;;;;;;5049484;28;20752;-73
2021/12/27 05:19:14;;;;;;;6.23;3.70;;;8.00;94.40;;;;;;5035984;28;20205;-73
2021/12/27 05:21:40;;;;;;;5.20;3.60;;;8.00;94.50;;;;;;5028116;28;20801;-73
2021/12/27 05:24:07;;;;;;;12.20;4.10;;;8.00;94.60;;;;;;5042598;28;20528;-74
2021/12/27 05:26:32;;;;;;;5.73;3.40;;;8.10;94.50;;;;;;5052227;28;20184;-75
2021/12/27 05:28:58;;;;;;;6.57;3.90;;;8.10;94.50;;;;;;5041963;28;20496;-74
2021/12/27 05:31:24;;;;;;;5.83;3.90;;;8.10;94.50;;;;;;5044338;28;20205;-73
2021/12/27 05:33:50;;;;;;;5.40;3.43;;;8.10;94.50;;;;;;5036161;28;20181;-74
2021/12/27 05:36:16;;;;;;;6.03;3.90;;;8.20;94.60;;;;;;5041226;28;20596;-74
2021/12/27 05:38:41;;;;;;;5.80;3.40;;;8.10;94.50;;;;;;5040961;28;20426;-74
2021/12/27 05:41:07;;;;;;;6.23;3.67;;;8.20;94.50;;;;;;5045779;28;20208;-74
2021/12/27 05:43:33;;;;;;;6.13;4.17;;;8.20;94.40;;;;;;5041314;28;20702;-75
2021/12/27 05:45:59;;;;;;;7.63;4.07;;;8.20;94.40;;;;;;5035426;28;20188;-73
2021/12/27 05:48:24;;;;;;;4.03;3.00;;;8.10;94.20;;;;;;5024702;28;20185;-74
2021/12/27 05:50:50;;;;;;;4.40;3.20;;;8.20;94.20;;;;;;5043642;28;20176;-73
2021/12/27 05:53:16;;;;;;;8.60;4.20;;;8.20;94.20;;;;;;5046041;28;20196;-74
2021/12/27 05:55:43;;;;;;;5.70;3.53;;;8.30;94.20;;;;;;5048854;28;20418;-73
2021/12/27 05:58:09;;;;;;;4.80;3.23;;;8.30;94.10;;;;;;5044492;28;20584;-74
2021/12/27 06:00:35;;;;;;;6.20;3.63;;;8.30;94.20;;;;;;5028512;28;20459;-74
2021/12/27 06:03:01;;;;;;;6.37;3.93;;;8.30;94.20;;;;;;5019734;28;20460;-73
2021/12/27 06:05:27;;;;;;;7.60;4.10;;;8.30;94.30;;;;;;5037531;28;20453;-73
2021/12/27 06:07:53;;;;;;;6.10;3.70;;;8.30;94.40;;;;;;5036007;28;20506;-73
2021/12/27 06:10:19;;;;;;;5.93;3.60;;;8.30;94.40;;;;;;5023852;28;20223;-73
2021/12/27 06:12:45;;;;;;;5.63;3.40;;;8.30;94.50;;;;;;5038082;28;20214;-75
2021/12/27 06:15:12;;;;;;;6.73;3.40;;;8.30;94.50;;;;;;5022296;28;20422;-73
2021/12/27 06:17:39;;;;;;;5.27;3.70;;;8.30;94.50;;;;;;5042597;28;20468;-72
2021/12/27 06:20:07;;;;;;;8.33;4.43;;;8.20;94.50;;;;;;5038692;28;20941;-73
2021/12/27 06:22:35;;;;;;;4.57;3.43;;;8.20;94.50;;;;;;5041100;28;20466;-76
2021/12/27 06:25:03;;;;;;;6.70;3.90;;;8.10;94.50;;;;;;5043919;28;20430;-73
2021/12/27 06:27:31;;;;;;;5.93;3.73;;;8.10;94.60;;;;;;5022589;28;20439;-74
2021/12/27 06:29:58;;;;;;;6.07;4.50;;;8.10;94.50;;;;;;5054801;28;20955;-74
2021/12/27 06:32:24;;;;;;;5.70;4.10;;;8.10;94.60;;;;;;5035558;28;20440;-74
2021/12/27 06:34:50;;;;;;;9.10;3.60;;;8.00;94.50;;;;;;5050487;28;20469;-73
2021/12/27 06:37:16;;;;;;;9.17;3.97;;;7.90;94.80;;;;;;5032114;28;20472;-73
2021/12/27 06:39:41;;;;;;;10.33;5.23;;;7.90;94.80;;;;;;5045858;28;20267;-73
2021/12/27 06:42:08;;;;;;;8.97;4.33;;;7.70;94.90;;;;;;5041534;28;20439;-73
2021/12/27 06:44:34;;;;;;;7.83;5.00;;;7.60;95.10;;;;;;5045691;28;20196;-74
2021/12/27 06:47:00;;;;;;;8.23;4.53;;;7.60;95.40;;;;;;5041504;28;20784;-74
2021/12/27 06:49:31;;;;;;;6.97;4.30;;;7.50;95.50;;;;;;5046217;28;20422;-73
2021/12/27 06:51:57;;;;;;;8.43;3.70;;;7.50;95.80;;;;;;5033899;28;20446;-73
2021/12/27 06:54:23;;;;;;;6.70;3.30;;;7.50;95.80;;;;;;5045256;28;20525;-74
2021/12/27 06:56:49;;;;;;;7.03;4.17;;;7.40;95.80;;;;;;5028411;28;20624;-73
2021/12/27 06:59:16;;;;;;;7.73;3.70;;;7.30;95.80;;;;;;5041482;28;20651;-74
2021/12/27 07:01:42;;;;;;;7.50;3.83;;;7.20;95.90;;;;;;5048445;28;20450;-73
2021/12/27 07:04:08;;;;;;;6.23;3.43;;;7.10;96.00;;;;;;5038920;28;20425;-75
2021/12/27 07:06:34;;;;;;;5.60;3.53;;;7.10;96.20;;;;;;5025129;28;20752;-73
2021/12/27 07:09:03;;;;;;;5.50;3.27;;;7.00;96.40;;;;;;5034321;28;20802;-73
2021/12/27 07:11:29;;;;;;;15.67;3.70;;;7.00;96.50;;;;;;5036179;28;20499;-74
2021/12/27 07:13:54;;;;;;;3.47;3.00;;;6.90;96.60;;;;;;5043269;28;20514;-73
2021/12/27 07:16:20;;;;;;;7.10;3.37;;;6.90;96.70;;;;;;5045611;28;20459;-75
2021/12/27 07:18:46;;;;;;;5.67;3.50;;;6.90;96.70;;;;;;5047790;28;20192;-76
2021/12/27 07:21:12;;;;;;;7.40;3.40;;;6.80;96.70;;;;;;5047878;28;20211;-76
2021/12/27 07:23:37;;;;;;;5.83;4.23;;;6.80;96.80;;;;;;5031468;28;20182;-76
2021/12/27 07:26:03;;;;;;;7.03;3.50;;;6.70;96.90;;;;;;5057348;28;20255;-74
2021/12/27 07:28:29;;;;;;;7.90;3.83;;;6.70;96.90;;;;;;5030765;28;20662;-74
2021/12/27 07:30:54;;;;;;;11.30;4.17;;;6.70;97.00;;;;;;5054570;28;20215;-75
2021/12/27 07:33:20;;;;;;;6.80;4.40;;;6.70;97.10;;;;;;5044162;28;20180;-77
2021/12/27 07:35:47;;;;;;;7.87;4.20;;;6.70;97.20;;;;;;5049329;28;20189;-76
2021/12/27 07:38:13;;;;;;;7.30;3.60;;;6.70;97.20;;;;;;5040044;28;20643;-76
2021/12/27 07:40:39;;;;;;;10.13;4.00;;;6.70;97.20;;;;;;5042460;28;20436;-74
2021/12/27 07:43:05;;;;;;;7.53;4.50;;;6.80;97.10;;;;;;5030462;28;20435;-75
2021/12/27 07:45:31;;;;;;;9.30;5.53;;;6.80;97.10;;;;;;5035850;28;20301;-74
2021/12/27 07:47:57;;;;;;;8.93;5.37;;;6.80;96.90;;;;;;5051674;28;20180;-74
2021/12/27 07:50:23;;;;;;;8.60;5.47;;;6.90;96.90;;;;;;5042475;28;20212;-74
2021/12/27 07:52:50;;;;;;;13.27;5.30;;;6.90;96.90;;;;;;5042523;28;21047;-72
2021/12/27 07:55:16;;;;;;;6.60;4.30;;;6.90;96.80;;;;;;5023342;28;20447;-73
2021/12/27 07:57:43;;;;;;;8.77;5.13;;;7.00;96.60;;;;;;5048215;28;21056;-74
2021/12/27 08:00:09;;;;;;;6.63;4.63;;;7.00;96.40;;;;;;5044694;28;20267;-73
2021/12/27 08:02:36;;;;;;;7.57;4.83;;;6.90;96.50;;;;;;5042200;28;20485;-73
2021/12/27 08:05:02;;;;;;;10.87;5.20;;;7.00;96.40;;;;;;5028706;28;20419;-72
2021/12/27 08:07:28;;;;;;;10.30;5.10;;;7.00;96.30;;;;;;5044548;28;20576;-72
2021/12/27 08:09:53;;;;;;;8.97;5.13;;;7.00;96.40;;;;;;5032127;28;20510;-72
2021/12/27 08:12:19;;;;;;;6.43;4.53;;;7.00;96.40;;;;;;5044001;28;20251;-74
2021/12/27 08:14:45;;;;;;;7.13;4.87;;;7.00;96.30;;;;;;5040312;28;20194;-73
2021/12/27 08:17:10;;;;;;;10.43;5.30;;;7.00;96.30;;;;;;5052646;28;20263;-74
2021/12/27 08:19:36;;;;;;;9.63;4.90;;;6.90;96.30;;;;;;5039847;28;20214;-76
2021/12/27 08:22:03;;;;;;;6.93;4.80;;;7.00;96.40;;;;;;5030913;28;20212;-75
2021/12/27 08:24:29;;;;;;;11.07;5.57;;;7.00;96.40;;;;;;5010558;28;20196;-76
2021/12/27 08:26:54;;;;;;;10.20;5.73;;;7.00;96.30;;;;;;5039693;28;20491;-75
2021/12/27 08:29:21;;;;;;;8.83;5.57;;;7.00;96.40;;;;;;5038704;28;20283;-75
2021/12/27 08:31:46;;;;;;;10.07;5.70;;;7.00;96.50;;;;;;5037715;28;20555;-74
2021/12/27 08:34:12;;;;;;;11.67;5.93;;;7.10;96.40;;;;;;5034420;28;20613;-75
2021/12/27 08:36:38;;;;;;;9.53;5.77;;;7.10;96.50;;;;;;5040479;28;20212;-74
2021/12/27 08:39:04;;;;;;;10.10;6.60;;;7.20;96.40;;;;;;5043681;28;20518;-74
2021/12/27 08:41:30;;;;;;;9.03;5.80;;;7.30;96.40;;;;;;5033118;28;20224;-76
2021/12/27 08:44:01;;;;;;;10.30;5.80;;;7.30;96.30;;;;;;5042035;28;20454;-74
2021/12/27 08:46:27;;;;;;;9.50;6.23;;;7.40;96.30;;;;;;5028077;28;20511;-75
2021/12/27 08:48:52;;;;;;;10.13;6.07;;;7.50;96.30;;;;;;5023143;28;20431;-75
2021/12/27 08:51:18;;;;;;;7.80;5.10;;;7.70;96.20;;;;;;5040512;28;20542;-77
2021/12/27 08:53:44;;;;;;;8.83;5.13;;;7.80;95.90;;;;;;5030718;28;20235;-76
2021/12/27 08:56:10;;;;;;;6.97;5.03;;;7.90;95.60;;;;;;5045516;28;20793;-74
2021/12/27 08:58:36;;;;;;;8.63;4.93;;;8.00;95.30;;;;;;5030591;28;20486;-73
2021/12/27 09:01:02;;;;;;;7.00;4.43;;;8.10;94.60;;;;;;5024016;28;20459;-74
2021/12/27 09:03:28;;;;;;;6.40;4.40;;;8.20;94.20;;;;;;5042653;28;20184;-74
2021/12/27 09:05:54;;;;;;;9.73;5.70;;;8.20;93.80;;;;;;5038753;28;20921;-75
2021/12/27 09:08:19;;;;;;;7.93;5.00;;;8.30;93.10;;;;;;5037133;28;20199;-73
2021/12/27 09:10:45;;;;;;;7.10;4.40;;;8.30;92.80;;;;;;5019482;28;20188;-73
2021/12/27 09:13:11;;;;;;;5.73;4.20;;;8.30;92.50;;;;;;5037142;28;20188;-75
2021/12/27 09:15:37;;;;;;;6.30;4.40;;;8.30;92.40;;;;;;5043066;28;20639;-75
2021/12/27 09:18:04;;;;;;;6.30;4.20;;;8.40;92.40;;;;;;5039548;28;20212;-75
2021/12/27 09:20:30;;;;;;;8.80;4.60;;;8.40;92.60;;;;;;5040275;28;20423;-75
2021/12/27 09:22:56;;;;;;;6.57;4.00;;;8.50;92.80;;;;;;5026406;28;20478;-73
2021/12/27 09:25:22;;;;;;;8.57;4.80;;;8.50;92.70;;;;;;5027755;28;20434;-73
2021/12/27 09:27:47;;;;;;;8.23;4.43;;;8.60;92.60;;;;;;5036053;28;20427;-73
2021/12/27 09:30:13;;;;;;;7.43;4.50;;;8.60;92.20;;;;;;5045146;28;20224;-75
2021/12/27 09:32:39;;;;;;;13.23;4.40;;;8.60;91.90;;;;;;5021541;28;20230;-74
2021/12/27 09:35:05;;;;;;;9.53;4.80;;;8.70;91.70;;;;;;5041253;28;20224;-75
2021/12/27 09:37:31;;;;;;;8.83;4.77;;;8.80;91.10;;;;;;5028671;28;20221;-75
2021/12/27 09:39:58;;;;;;;7.40;4.97;;;8.80;91.00;;;;;;5024032;28;20858;-74
2021/12/27 09:42:26;;;;;;;7.47;4.23;;;8.70;91.20;;;;;;5043284;28;20208;-74
2021/12/27 09:44:53;;;;;;;9.63;5.30;;;8.70;91.60;;;;;;5038370;28;20472;-74
2021/12/27 09:47:20;;;;;;;6.77;4.57;;;8.70;91.70;;;;;;5040559;28;20511;-75
2021/12/27 09:49:47;;;;;;;8.07;4.63;;;8.80;91.60;;;;;;5042508;28;20443;-76
2021/12/27 09:52:13;;;;;;;7.80;4.50;;;8.90;91.60;;;;;;5031765;28;20908;-73
2021/12/27 09:54:39;;;;;;;6.80;4.77;;;8.90;91.60;;;;;;5034583;28;20461;-74
2021/12/27 09:57:05;;;;;;;7.90;5.00;;;8.90;91.50;;;;;;5039353;28;20467;-74
2021/12/27 09:59:31;;;;;;;7.30;4.50;;;8.90;91.40;;;;;;5030141;28;20423;-74
2021/12/27 10:01:57;;;;;;;7.00;4.60;;;9.00;91.40;;;;;;5037510;28;20525;-73
2021/12/27 10:04:23;;;;;;;6.30;4.57;;;9.00;90.70;;;;;;5026121;28;20568;-73
2021/12/27 10:06:49;;;;;;;7.20;4.57;;;9.10;90.60;;;;;;5033547;28;20959;-75
2021/12/27 10:09:15;;;;;;;8.30;5.03;;;9.10;90.80;;;;;;5041128;28;20431;-75
2021/12/27 10:11:44;;;;;;;9.57;5.17;;;9.00;91.10;;;;;;5029974;28;20595;-72
2021/12/27 10:14:15;;;;;;;7.20;4.53;;;9.00;91.20;;;;;;5038009;28;20443;-74
2021/12/27 10:16:43;;;;;;;8.03;4.30;;;9.00;91.20;;;;;;5037204;28;20472;-73
2021/12/27 10:19:11;;;;;;;5.30;3.10;;;9.10;91.10;;;;;;5031243;28;20483;-74
2021/12/27 10:21:41;;;;;;;6.03;3.90;;;9.20;90.40;;;;;;5039272;28;20446;-74
2021/12/27 10:24:17;;;;;;;7.70;3.50;;;9.10;90.00;;;;;;5034816;28;20788;-74
2021/12/27 10:26:47;;;;;;;5.67;3.77;;;9.10;90.00;;;;;;5021132;28;20441;-74
2021/12/27 10:29:18;;;;;;;6.83;3.80;;;9.00;89.70;;;;;;5018631;28;20430;-73
2021/12/27 10:32:06;;;;;;;5.83;3.70;;;9.00;90.10;;;;;;5043402;28;20475;-72
2021/12/27 10:34:36;;;;;;;5.43;3.20;;;9.00;90.40;;;;;;5041089;28;20423;-72
2021/12/27 10:37:06;;;;;;;5.43;3.20;;;8.90;90.40;;;;;;5023624;28;20498;-73
2021/12/27 10:39:43;;;;;;;5.47;3.67;;;8.90;90.60;;;;;;5044884;28;20462;-74
2021/12/27 10:42:10;;;;;;;6.50;3.73;;;9.00;90.80;;;;;;5032137;28;20515;-74
2021/12/27 10:44:37;;;;;;;5.17;3.17;;;9.10;90.60;;;;;;5041874;28;20609;-73
2021/12/27 10:47:24;;;;;;;5.90;3.73;;;9.20;90.30;;;;;;5026016;28;20438;-73
2021/12/27 10:49:50;;;;;;;7.30;3.80;;;9.40;90.30;;;;;;5039947;28;20430;-72
2021/12/27 10:52:16;;;;;;;5.60;3.23;;;9.50;90.30;;;;;;5034807;28;20459;-73
2021/12/27 10:54:42;;;;;;;6.70;3.60;;;9.70;88.90;;;;;;5021585;28;20545;-73
2021/12/27 10:57:07;;;;;;;6.83;3.73;;;9.90;88.40;;;;;;5024127;28;20475;-73
2021/12/27 10:59:33;;;;;;;5.90;3.80;;;10.20;87.40;;;;;;5030797;28;20188;-74
2021/12/27 11:02:11;;;;;;;4.67;3.20;;;10.40;85.90;;;;;;5042192;28;20438;-72
2021/12/27 11:04:37;;;;;;;5.47;3.50;;;10.60;85.00;;;;;;5025446;28;20432;-74
2021/12/27 11:07:05;;;;;;;4.40;3.27;;;10.60;83.80;;;;;;5034694;28;21008;-74
2021/12/27 11:09:35;;;;;;;6.17;4.00;;;10.60;83.60;;;;;;5022436;28;20432;-74
2021/12/27 11:12:02;;;;;;;6.77;3.73;;;10.60;83.30;;;;;;5032913;28;21008;-72
2021/12/27 11:14:27;;;;;;;5.00;3.17;;;10.50;84.00;;;;;;5033707;28;20432;-74
2021/12/27 11:16:54;;;;;;;8.03;3.97;;;10.40;84.40;;;;;;5035594;28;20532;-71
2021/12/27 11:19:20;;;;;;;5.77;3.20;;;10.50;84.60;;;;;;5033236;28;20213;-71
2021/12/27 11:21:49;;;;;;;4.50;3.10;;;10.50;84.70;;;;;;5046318;28;20490;-74
2021/12/27 11:24:15;;;;;;;6.50;3.30;;;10.60;84.90;;;;;;5030244;28;20436;-73
2021/12/27 11:26:43;;;;;;;5.43;3.40;;;10.60;84.60;;;;;;5042319;28;20442;-74
2021/12/27 11:29:17;;;;;;;5.90;3.60;;;10.60;84.10;;;;;;5020511;28;20811;-72
2021/12/27 11:31:46;;;;;;;5.13;3.10;;;10.60;84.30;;;;;;5024691;28;20462;-75
2021/12/27 11:34:15;;;;;;;6.20;3.80;;;10.60;84.30;;;;;;5043494;28;20422;-72
2021/12/27 11:36:55;;;;;;;5.53;3.80;;;10.60;84.60;;;;;;5042083;28;20476;-73
2021/12/27 11:39:24;;;;;;;6.43;3.80;;;10.70;85.00;;;;;;5036786;28;20829;-73
2021/12/27 11:41:57;;;;;;;4.70;3.43;;;10.70;84.70;;;;;;5040617;28;20439;-74
2021/12/27 11:44:53;;;;;;;5.70;3.77;;;10.80;84.30;;;;;;5045775;28;20567;-72
2021/12/27 11:47:24;;;;;;;5.90;3.33;;;10.80;84.60;;;;;;5034785;28;20541;-73
2021/12/27 11:49:52;;;;;;;6.07;3.83;;;10.90;84.90;;;;;;5048025;28;20433;-73
2021/12/27 11:52:19;;;;;;;7.17;3.40;;;11.00;84.00;;;;;;5046492;28;20455;-72
2021/12/27 11:55:14;;;;;;;6.40;3.87;;;11.10;83.40;;;;;;5044671;28;20436;-71
2021/12/27 11:57:43;;;;;;;7.37;4.20;;;11.10;82.50;;;;;;5042544;28;21372;-74
2021/12/27 12:00:18;;;;;;;5.93;3.50;;;11.10;82.10;;;;;;5034329;28;20506;-72
2021/12/27 12:03:04;;;;;;;6.10;3.87;;;11.10;82.50;;;;;;5036505;28;20438;-73
2021/12/27 12:05:42;;;;;;;8.83;4.67;;;11.20;82.70;;;;;;5029476;28;20437;-73
2021/12/27 12:08:10;;;;;;;7.13;4.60;;;11.30;83.00;;;;;;5035481;28;20463;-72
2021/12/27 12:10:37;;;;;;;6.33;4.40;;;11.30;83.00;;;;;;5041214;28;20473;-73
2021/12/27 12:13:27;;;;;;;7.70;4.87;;;11.30;83.40;;;;;;5031676;28;20431;-73
2021/12/27 12:15:57;;;;;;;7.17;4.30;;;11.30;83.60;;;;;;5037783;28;20419;-73
2021/12/27 12:18:22;;;;;;;7.63;4.50;;;11.20;83.40;;;;;;5041323;28;21027;-73
2021/12/27 12:20:48;;;;;;;7.80;4.70;;;11.20;83.60;;;;;;5040762;28;20439;-73
2021/12/27 12:23:14;;;;;;;7.93;4.93;;;11.20;84.10;;;;;;5026314;28;20193;-72
2021/12/27 12:25:40;;;;;;;12.10;6.27;;;11.20;83.80;;;;;;5034472;28;20193;-72
2021/12/27 12:28:11;;;;;;;8.47;4.70;;;11.10;84.10;;;;;;5042660;28;20525;-72
2021/12/27 12:30:49;;;;;;;9.87;5.10;;;11.00;84.40;;;;;;5040256;28;20432;-72
2021/12/27 12:33:25;;;;;;;10.20;5.30;;;11.00;84.70;;;;;;5034195;28;20426;-73
2021/12/27 12:36:00;;;;;;;7.10;4.80;;;11.00;85.30;;;;;;5037658;28;20482;-72
2021/12/27 12:38:33;;;;;;;8.40;4.70;;;11.00;85.70;;;;;;5035607;28;20432;-71
2021/12/27 12:41:15;;;;;;;12.03;5.57;;;11.00;85.70;;;;;;5022029;28;20427;-72
2021/12/27 12:43:54;;;;;;;8.13;4.80;;;11.00;85.00;;;;;;5038669;28;20432;-74
2021/12/27 12:46:28;;;;;;;7.80;4.60;;;10.90;84.90;;;;;;5029206;28;20488;-73
2021/12/27 12:49:08;;;;;;;7.87;5.13;;;10.90;85.20;;;;;;5023847;28;20415;-74
2021/12/27 12:51:51;;;;;;;8.53;5.63;;;10.90;85.00;;;;;;5029934;28;20443;-72
2021/12/27 12:54:19;;;;;;;7.97;5.30;;;10.80;85.30;;;;;;5027478;28;20996;-75
2021/12/27 12:56:46;;;;;;;7.03;4.80;;;10.70;86.00;;;;;;5021994;28;20546;-73
2021/12/27 12:59:18;;;;;;;8.50;4.70;;;10.70;86.30;;;;;;5042933;28;20425;-73